![]() |
EMODnet Physics ERDDAP
Easier access to scientific data |
log in|
Brought to you by EMODnet Physics |
| Dataset Title: | NDBC - Collection of dew point temperature (DEWT) TimeSeries - IN SITU MultiPointTimeSeriesObservation
|
| Institution: | NDBC (Dataset ID: TS_DEWT_NDBC) |
| Information: | Summary
| License
| FGDC
| ISO 19115
| Metadata
| Background
| Subset
| Data Access Form
| Make a graph
|
| Name | Last modified | Size | Description | |
|---|---|---|---|---|
| Parent Directory | - | - | ||
| FRXM3_TS_DEWT_012016.nc | 27-Oct-2024 10:05 | 429912 | ||
| FRXM3_TS_DEWT_012017.nc | 27-Oct-2024 10:05 | 607995 | ||
| FRXM3_TS_DEWT_012018.nc | 27-Oct-2024 10:05 | 428999 | ||
| FRXM3_TS_DEWT_012020.nc | 27-Oct-2024 10:05 | 429912 | ||
| FRXM3_TS_DEWT_012021.nc | 27-Oct-2024 10:06 | 449326 | ||
| FRXM3_TS_DEWT_012022.nc | 27-Oct-2024 10:06 | 450543 | ||
| FRXM3_TS_DEWT_012023.nc | 27-Oct-2024 10:06 | 1258950 | ||
| FRXM3_TS_DEWT_012024.nc | 27-Oct-2024 10:06 | 1103496 | ||
| FRXM3_TS_DEWT_012025.nc | 07-Feb-2025 12:24 | 1257724 | ||
| FRXM3_TS_DEWT_012026.nc | 02-Feb-2026 18:43 | 1262108 | ||
| FRXM3_TS_DEWT_022016.nc | 27-Oct-2024 10:06 | 1263866 | ||
| FRXM3_TS_DEWT_022017.nc | 27-Oct-2024 10:06 | 4737001 | ||
| FRXM3_TS_DEWT_022018.nc | 27-Oct-2024 10:06 | 429685 | ||
| FRXM3_TS_DEWT_022019.nc | 27-Oct-2024 10:06 | 429684 | ||
| FRXM3_TS_DEWT_022020.nc | 27-Oct-2024 10:06 | 429682 | ||
| FRXM3_TS_DEWT_022021.nc | 27-Oct-2024 10:06 | 429677 | ||
| FRXM3_TS_DEWT_022022.nc | 27-Oct-2024 10:06 | 429680 | ||
| FRXM3_TS_DEWT_022023.nc | 27-Oct-2024 10:06 | 429698 | ||
| FRXM3_TS_DEWT_022024.nc | 16-Sep-2024 16:51 | 429690 | ||
| FRXM3_TS_DEWT_022025.nc | 01-Mar-2025 06:35 | 450529 | ||
| FRXM3_TS_DEWT_022026.nc | 01-Mar-2026 08:26 | 450933 | ||
| FRXM3_TS_DEWT_032015.nc | 27-Oct-2024 10:06 | 448922 | ||
| FRXM3_TS_DEWT_032016.nc | 27-Oct-2024 10:06 | 429680 | ||
| FRXM3_TS_DEWT_032017.nc | 27-Oct-2024 10:06 | 429688 | ||
| FRXM3_TS_DEWT_032018.nc | 27-Oct-2024 10:06 | 429689 | ||
| FRXM3_TS_DEWT_032019.nc | 27-Oct-2024 10:06 | 429692 | ||
| FRXM3_TS_DEWT_032020.nc | 27-Oct-2024 10:07 | 429689 | ||
| FRXM3_TS_DEWT_032021.nc | 27-Oct-2024 10:07 | 424753 | ||
| FRXM3_TS_DEWT_032022.nc | 27-Oct-2024 10:07 | 429694 | ||
| FRXM3_TS_DEWT_032025.nc | 02-Apr-2025 05:20 | 429632 | ||
| FRXM3_TS_DEWT_032026.nc | 21-Mar-2026 09:31 | 429700 | ||
| FRXM3_TS_DEWT_042015.nc | 27-Oct-2024 10:07 | 429912 | ||
| FRXM3_TS_DEWT_042016.nc | 27-Oct-2024 10:07 | 429912 | ||
| FRXM3_TS_DEWT_042017.nc | 27-Oct-2024 10:07 | 429914 | ||
| FRXM3_TS_DEWT_042018.nc | 27-Oct-2024 10:07 | 429863 | ||
| FRXM3_TS_DEWT_042019.nc | 27-Oct-2024 10:07 | 429913 | ||
| FRXM3_TS_DEWT_042021.nc | 27-Oct-2024 10:07 | 421478 | ||
| FRXM3_TS_DEWT_042022.nc | 27-Oct-2024 10:07 | 427954 | ||
| FRXM3_TS_DEWT_042023.nc | 27-Oct-2024 10:07 | 994240 | ||
| FRXM3_TS_DEWT_042025.nc | 01-May-2025 05:24 | 428630 | ||
| FRXM3_TS_DEWT_052015.nc | 27-Oct-2024 10:07 | 434367 | ||
| FRXM3_TS_DEWT_052016.nc | 27-Oct-2024 10:07 | 429913 | ||
| FRXM3_TS_DEWT_052017.nc | 27-Oct-2024 10:07 | 450672 | ||
| FRXM3_TS_DEWT_052018.nc | 27-Oct-2024 10:08 | 451238 | ||
| FRXM3_TS_DEWT_052019.nc | 27-Oct-2024 10:08 | 1264568 | ||
| FRXM3_TS_DEWT_052020.nc | 27-Oct-2024 10:08 | 1255287 | ||
| FRXM3_TS_DEWT_052021.nc | 27-Oct-2024 10:08 | 1261529 | ||
| FRXM3_TS_DEWT_052022.nc | 27-Oct-2024 10:08 | 1263806 | ||
| FRXM3_TS_DEWT_052023.nc | 27-Oct-2024 10:08 | 1251438 | ||
| FRXM3_TS_DEWT_052025.nc | 01-Jun-2025 05:26 | 5517329 | ||
| FRXM3_TS_DEWT_062015.nc | 27-Oct-2024 10:08 | 429356 | ||
| FRXM3_TS_DEWT_062016.nc | 27-Oct-2024 10:08 | 429351 | ||
| FRXM3_TS_DEWT_062017.nc | 27-Oct-2024 10:08 | 429336 | ||
| FRXM3_TS_DEWT_062018.nc | 27-Oct-2024 10:08 | 429354 | ||
| FRXM3_TS_DEWT_062019.nc | 27-Oct-2024 10:08 | 429344 | ||
| FRXM3_TS_DEWT_062020.nc | 27-Oct-2024 10:08 | 424639 | ||
| FRXM3_TS_DEWT_062022.nc | 27-Oct-2024 10:08 | 448952 | ||
| FRXM3_TS_DEWT_062023.nc | 27-Oct-2024 10:08 | 433789 | ||
| FRXM3_TS_DEWT_062025.nc | 17-Jun-2025 04:32 | 449642 | ||
| FRXM3_TS_DEWT_072015.nc | 27-Oct-2024 10:08 | 432217 | ||
| FRXM3_TS_DEWT_072016.nc | 27-Oct-2024 10:08 | 429345 | ||
| FRXM3_TS_DEWT_072017.nc | 27-Oct-2024 10:08 | 429327 | ||
| FRXM3_TS_DEWT_072018.nc | 27-Oct-2024 10:09 | 429354 | ||
| FRXM3_TS_DEWT_072019.nc | 27-Oct-2024 10:09 | 429367 | ||
| FRXM3_TS_DEWT_072020.nc | 27-Oct-2024 10:09 | 429372 | ||
| FRXM3_TS_DEWT_072021.nc | 27-Oct-2024 10:09 | 429361 | ||
| FRXM3_TS_DEWT_072022.nc | 27-Oct-2024 10:09 | 429373 | ||
| FRXM3_TS_DEWT_072023.nc | 27-Oct-2024 10:09 | 429371 | ||
| FRXM3_TS_DEWT_072025.nc | 16-Aug-2025 07:45 | 429363 | ||
| FRXM3_TS_DEWT_082015.nc | 27-Oct-2024 10:09 | 429367 | ||
| FRXM3_TS_DEWT_082016.nc | 27-Oct-2024 10:09 | 418875 | ||
| FRXM3_TS_DEWT_082017.nc | 27-Oct-2024 10:09 | 429575 | ||
| FRXM3_TS_DEWT_082018.nc | 27-Oct-2024 10:09 | 429574 | ||
| FRXM3_TS_DEWT_082019.nc | 27-Oct-2024 10:09 | 429574 | ||
| FRXM3_TS_DEWT_082020.nc | 27-Oct-2024 10:09 | 429573 | ||
| FRXM3_TS_DEWT_082021.nc | 27-Oct-2024 10:09 | 429571 | ||
| FRXM3_TS_DEWT_082022.nc | 27-Oct-2024 10:09 | 429569 | ||
| FRXM3_TS_DEWT_082023.nc | 27-Oct-2024 10:09 | 994733 | ||
| FRXM3_TS_DEWT_082025.nc | 01-Sep-2025 07:50 | 429568 | ||
| FRXM3_TS_DEWT_092015.nc | 27-Oct-2024 10:09 | 449954 | ||
| FRXM3_TS_DEWT_092016.nc | 27-Oct-2024 10:10 | 429574 | ||
| FRXM3_TS_DEWT_092017.nc | 27-Oct-2024 10:10 | 448414 | ||
| FRXM3_TS_DEWT_092018.nc | 27-Oct-2024 10:10 | 449096 | ||
| FRXM3_TS_DEWT_092019.nc | 27-Oct-2024 10:10 | 1106311 | ||
| FRXM3_TS_DEWT_092020.nc | 27-Oct-2024 10:10 | 995906 | ||
| FRXM3_TS_DEWT_092021.nc | 27-Oct-2024 10:10 | 1112512 | ||
| FRXM3_TS_DEWT_092022.nc | 27-Oct-2024 10:10 | 1110648 | ||
| FRXM3_TS_DEWT_092023.nc | 27-Oct-2024 10:10 | 1102602 | ||
| FRXM3_TS_DEWT_092025.nc | 01-Oct-2025 07:57 | 4873392 | ||
| FRXM3_TS_DEWT_102015.nc | 27-Oct-2024 10:10 | 429683 | ||
| FRXM3_TS_DEWT_102016.nc | 27-Oct-2024 10:10 | 429686 | ||
| FRXM3_TS_DEWT_102017.nc | 27-Oct-2024 10:10 | 429681 | ||
| FRXM3_TS_DEWT_102018.nc | 27-Oct-2024 10:10 | 429686 | ||
| FRXM3_TS_DEWT_102019.nc | 27-Oct-2024 10:10 | 429684 | ||
| FRXM3_TS_DEWT_102020.nc | 27-Oct-2024 10:10 | 420062 | ||
| FRXM3_TS_DEWT_102021.nc | 27-Oct-2024 10:10 | 429396 | ||
| FRXM3_TS_DEWT_102022.nc | 27-Oct-2024 10:11 | 450007 | ||
| FRXM3_TS_DEWT_102023.nc | 27-Oct-2024 10:11 | 440211 | ||
| FRXM3_TS_DEWT_102024.nc | 12-Jan-2025 22:26 | 450445 | ||
| FRXM3_TS_DEWT_102025.nc | 01-Nov-2025 07:27 | 429695 | ||
| FRXM3_TS_DEWT_112015.nc | 27-Oct-2024 10:11 | 429689 | ||
| FRXM3_TS_DEWT_112016.nc | 27-Oct-2024 10:11 | 429687 | ||
| FRXM3_TS_DEWT_112017.nc | 27-Oct-2024 10:11 | 429698 | ||
| FRXM3_TS_DEWT_112018.nc | 27-Oct-2024 10:11 | 429689 | ||
| FRXM3_TS_DEWT_112019.nc | 27-Oct-2024 10:11 | 429693 | ||
| FRXM3_TS_DEWT_112020.nc | 27-Oct-2024 10:11 | 429699 | ||
| FRXM3_TS_DEWT_112021.nc | 27-Oct-2024 10:11 | 429689 | ||
| FRXM3_TS_DEWT_112022.nc | 27-Oct-2024 10:11 | 429700 | ||
| FRXM3_TS_DEWT_112023.nc | 27-Oct-2024 10:11 | 429702 | ||
| FRXM3_TS_DEWT_112024.nc | 20-Jan-2025 07:54 | 429693 | ||
| FRXM3_TS_DEWT_112025.nc | 02-Dec-2025 04:48 | 429910 | ||
| FRXM3_TS_DEWT_122015.nc | 27-Oct-2024 10:11 | 429917 | ||
| FRXM3_TS_DEWT_122016.nc | 27-Oct-2024 10:11 | 429894 | ||
| FRXM3_TS_DEWT_122017.nc | 27-Oct-2024 10:11 | 429914 | ||
| FRXM3_TS_DEWT_122018.nc | 27-Oct-2024 10:11 | 429914 | ||
| FRXM3_TS_DEWT_122019.nc | 27-Oct-2024 10:12 | 429913 | ||
| FRXM3_TS_DEWT_122020.nc | 27-Oct-2024 10:12 | 429913 | ||
| FRXM3_TS_DEWT_122021.nc | 27-Oct-2024 10:12 | 995995 | ||
| FRXM3_TS_DEWT_122022.nc | 27-Oct-2024 10:12 | 429857 | ||
| FRXM3_TS_DEWT_122023.nc | 27-Oct-2024 10:12 | 448994 | ||
| FRXM3_TS_DEWT_122025.nc | 01-Jan-2026 06:20 | 420130 | ||